Time;durP1;ratioP1;P1;durP2;ratioP2;P2;SDS_P1;SDS_P2;PMS_P1;PMS_P2;Temp;Humidity;BMP_temperature;BMP_pressure;BME280_temperature;BME280_humidity;BME280_pressure;Samples;Min_cycle;Max_cycle;Signal;HPM_P1;HPM_P2
2021/05/20 00:00:43;;;;;;;13.15;7.57;;;9.50;99.90;;;;;;4878653;29;20052;-85
2021/05/20 00:03:15;;;;;;;12.18;7.32;;;9.50;99.90;;;;;;4893190;29;20508;-87
2021/05/20 00:06:05;;;;;;;15.40;8.13;;;9.50;99.90;;;;;;4543557;29;10000493;-87
2021/05/20 00:08:34;;;;;;;17.20;7.87;;;9.50;99.90;;;;;;4875246;29;20053;-87
2021/05/20 00:11:05;;;;;;;12.30;7.10;;;10.20;99.90;;;;;;4892157;29;20053;-87
2021/05/20 00:13:33;;;;;;;15.32;7.68;;;9.40;99.90;;;;;;4896577;29;20053;-86
2021/05/20 00:16:10;;;;;;;12.88;7.22;;;9.40;99.90;;;;;;4892144;29;20060;-86
2021/05/20 00:18:41;;;;;;;17.42;7.22;;;9.40;99.90;;;;;;4875482;29;20056;-88
2021/05/20 00:21:16;;;;;;;10.65;6.47;;;9.40;99.90;;;;;;4912341;29;20060;-87
2021/05/20 00:23:45;;;;;;;14.55;6.70;;;9.40;99.90;;;;;;4896966;29;20056;-87
2021/05/20 00:26:13;;;;;;;9.65;5.45;;;9.30;99.90;;;;;;4894728;29;20062;-87
2021/05/20 00:28:44;;;;;;;13.18;5.70;;;9.30;99.90;;;;;;4912397;29;20066;-87
2021/05/20 00:31:14;;;;;;;13.93;6.15;;;9.30;99.90;;;;;;4895861;29;20056;-86
2021/05/20 00:33:45;;;;;;;13.77;5.93;;;10.10;99.90;;;;;;4896936;29;20052;-85
2021/05/20 00:36:14;;;;;;;8.93;5.75;;;8.90;99.90;;;;;;4912054;29;20304;-87
2021/05/20 00:38:44;;;;;;;8.32;5.15;;;9.30;99.90;;;;;;4914350;29;20055;-87
2021/05/20 00:41:12;;;;;;;17.23;6.43;;;9.30;99.90;;;;;;4894847;29;20056;-87
2021/05/20 00:43:43;;;;;;;6.47;4.63;;;9.20;99.90;;;;;;4894561;29;20439;-87
2021/05/20 00:46:14;;;;;;;11.32;5.22;;;9.20;99.90;;;;;;4894508;29;20067;-87
2021/05/20 00:48:44;;;;;;;10.75;5.43;;;9.20;99.90;;;;;;4893848;29;20048;-87
2021/05/20 00:51:17;;;;;;;14.18;5.53;;;9.20;99.90;;;;;;4895002;29;20052;-87
2021/05/20 00:53:50;;;;;;;14.93;6.60;;;9.20;99.90;;;;;;4893655;29;20048;-87
2021/05/20 00:56:22;;;;;;;11.43;5.38;;;9.10;99.90;;;;;;4859926;29;20052;-87
2021/05/20 00:58:52;;;;;;;14.05;5.70;;;9.10;99.90;;;;;;4883245;29;20044;-87
2021/05/20 01:01:24;;;;;;;10.57;4.55;;;9.30;99.90;;;;;;4907677;29;20052;-86
2021/05/20 01:03:59;;;;;;;7.88;4.47;;;9.10;99.90;;;;;;4893633;29;20064;-86
2021/05/20 01:06:32;;;;;;;6.63;3.97;;;9.30;99.90;;;;;;4876733;29;20057;-86
2021/05/20 01:09:04;;;;;;;17.20;4.45;;;9.10;99.90;;;;;;4906566;29;20064;-86
2021/05/20 01:11:34;;;;;;;12.95;5.13;;;9.10;99.90;;;;;;4890014;29;20065;-86
2021/05/20 01:14:02;;;;;;;9.95;3.78;;;9.10;99.90;;;;;;4904595;29;20059;-86
2021/05/20 01:16:32;;;;;;;8.32;4.85;;;9.00;99.90;;;;;;4874532;29;20049;-87
2021/05/20 01:19:01;;;;;;;9.25;3.53;;;9.10;99.90;;;;;;4892199;29;20052;-87
2021/05/20 01:21:33;;;;;;;8.75;4.43;;;9.00;99.90;;;;;;4876963;29;20063;-88
2021/05/20 01:24:03;;;;;;;9.48;3.65;;;9.30;99.90;;;;;;4876682;29;20168;-87
2021/05/20 01:26:44;;;;;;;8.02;4.18;;;9.00;99.90;;;;;;4885608;29;20045;-87
2021/05/20 01:29:13;;;;;;;6.88;3.60;;;9.00;99.90;;;;;;4876967;29;20532;-87
2021/05/20 01:31:41;;;;;;;9.25;3.28;;;9.00;99.90;;;;;;4889757;29;20048;-87
2021/05/20 01:34:10;;;;;;;7.68;3.67;;;9.80;99.90;;;;;;4906636;29;20061;-87
2021/05/20 01:36:39;;;;;;;14.25;3.78;;;9.00;99.90;;;;;;4884859;29;20060;-87
2021/05/20 01:39:10;;;;;;;6.75;3.78;;;9.00;99.90;;;;;;4890344;29;20068;-87
2021/05/20 01:41:39;;;;;;;8.18;3.30;;;8.90;99.90;;;;;;4880553;29;20061;-87
2021/05/20 01:44:14;;;;;;;12.00;4.32;;;9.00;99.90;;;;;;4903630;29;20064;-87
2021/05/20 01:46:45;;;;;;;11.93;4.10;;;8.90;99.90;;;;;;4899844;29;20055;-87
2021/05/20 01:49:17;;;;;;;6.22;3.33;;;8.90;99.90;;;;;;4907442;29;20063;-87
2021/05/20 01:51:46;;;;;;;6.20;3.20;;;10.30;99.90;;;;;;4890465;29;20049;-87
2021/05/20 01:54:15;;;;;;;6.15;3.17;;;8.90;99.90;;;;;;4875361;29;20061;-87
2021/05/20 01:56:43;;;;;;;8.15;4.13;;;8.90;99.90;;;;;;4890813;29;20056;-87
2021/05/20 01:59:14;;;;;;;15.73;5.72;;;10.00;99.90;;;;;;4890116;29;20049;-87
2021/05/20 02:01:43;;;;;;;7.65;3.60;;;8.90;99.90;;;;;;4889481;29;20071;-87
2021/05/20 02:04:11;;;;;;;5.70;3.35;;;8.80;99.90;;;;;;4875427;29;20056;-87
2021/05/20 02:06:42;;;;;;;;;;;9.50;99.90;;;;;;4891251;29;20048;-86
2021/05/20 02:09:16;;;;;;;15.65;5.53;;;8.80;99.90;;;;;;4876230;29;20036;-87
2021/05/20 02:11:45;;;;;;;8.57;3.40;;;8.70;99.90;;;;;;4874382;29;20072;-87
2021/05/20 02:14:31;;;;;;;19.23;3.60;;;8.70;99.90;;;;;;4889771;29;20055;-87
2021/05/20 02:17:00;;;;;;;11.20;4.07;;;8.70;99.90;;;;;;4883295;29;20048;-85
2021/05/20 02:19:28;;;;;;;11.32;3.90;;;8.90;99.90;;;;;;4910682;29;20053;-87
2021/05/20 02:21:56;;;;;;;10.02;5.00;;;8.60;99.90;;;;;;4891041;29;20056;-87
2021/05/20 02:24:26;;;;;;;4.93;2.88;;;8.70;99.90;;;;;;4907131;29;20064;-87
2021/05/20 02:26:54;;;;;;;10.05;3.72;;;8.60;99.90;;;;;;4876526;29;20055;-87
2021/05/20 02:29:23;;;;;;;11.27;4.00;;;8.50;99.90;;;;;;4876763;29;20071;-86
2021/05/20 02:31:52;;;;;;;7.45;4.15;;;9.00;99.90;;;;;;4875674;29;20061;-87
2021/05/20 02:34:20;;;;;;;6.13;3.92;;;8.50;99.90;;;;;;4908719;29;20060;-87
2021/05/20 02:36:53;;;;;;;15.55;3.78;;;9.00;99.90;;;;;;4886001;29;20052;-86
2021/05/20 02:39:21;;;;;;;11.55;3.70;;;8.50;99.90;;;;;;4891635;29;20063;-87
2021/05/20 02:41:50;;;;;;;10.32;4.50;;;8.50;99.90;;;;;;4891478;29;20052;-86
2021/05/20 02:44:20;;;;;;;5.38;3.33;;;8.50;99.90;;;;;;4891034;29;20177;-87
2021/05/20 02:46:52;;;;;;;7.88;4.20;;;8.50;99.90;;;;;;4891190;29;20052;-87
2021/05/20 02:49:21;;;;;;;11.13;4.70;;;8.40;99.90;;;;;;4890012;29;20060;-87
2021/05/20 02:51:49;;;;;;;7.18;2.92;;;8.40;99.90;;;;;;4891120;29;20061;-87
2021/05/20 02:54:18;;;;;;;14.18;3.75;;;8.80;99.90;;;;;;4876294;29;20064;-86
2021/05/20 02:56:46;;;;;;;9.98;3.35;;;8.30;99.90;;;;;;4877210;29;20052;-87
2021/05/20 02:59:16;;;;;;;6.32;3.75;;;8.40;99.90;;;;;;4892023;29;20397;-87
2021/05/20 03:01:47;;;;;;;9.00;3.50;;;9.50;99.90;;;;;;4891475;29;20060;-86
2021/05/20 03:04:15;;;;;;;9.77;3.42;;;8.30;99.90;;;;;;4877308;29;20080;-87
2021/05/20 03:06:43;;;;;;;11.80;4.32;;;9.30;99.90;;;;;;4908766;29;20075;-87
2021/05/20 03:09:14;;;;;;;9.25;4.22;;;9.00;99.90;;;;;;4875499;29;20045;-87
2021/05/20 03:11:42;;;;;;;10.07;3.42;;;8.50;99.90;;;;;;4883181;29;20072;-86
2021/05/20 03:14:10;;;;;;;10.00;4.28;;;9.20;99.90;;;;;;4876864;29;20075;-87
2021/05/20 03:16:39;;;;;;;9.05;5.18;;;8.30;99.90;;;;;;4874109;29;20067;-87
2021/05/20 03:19:11;;;;;;;9.35;4.00;;;9.50;99.90;;;;;;4919527;23;20055;-87
2021/05/20 03:21:39;;;;;;;9.93;4.90;;;8.30;99.90;;;;;;4900665;29;20523;-87
2021/05/20 03:24:15;;;;;;;9.63;4.22;;;9.30;99.90;;;;;;4904666;29;20040;-87
2021/05/20 03:26:43;;;;;;;11.20;5.07;;;8.20;99.90;;;;;;4922646;29;20064;-87
2021/05/20 03:29:14;;;;;;;8.43;3.85;;;8.30;99.90;;;;;;4931038;29;20055;-87
2021/05/20 03:31:42;;;;;;;9.55;4.82;;;8.20;99.90;;;;;;4926314;29;20067;-86
2021/05/20 03:34:10;;;;;;;9.93;5.07;;;9.00;99.90;;;;;;4898451;29;20048;-87
2021/05/20 03:36:38;;;;;;;9.40;4.13;;;7.20;99.90;;;;;;4910169;29;20052;-87
2021/05/20 03:39:07;;;;;;;12.55;6.28;;;8.10;99.90;;;;;;4914136;29;20044;-87
2021/05/20 03:41:38;;;;;;;11.65;5.35;;;9.40;99.90;;;;;;4915888;29;20060;-87
2021/05/20 03:44:13;;;;;;;7.10;4.97;;;8.20;99.90;;;;;;4906855;29;20055;-87
2021/05/20 03:46:42;;;;;;;14.95;5.40;;;8.10;99.90;;;;;;4888984;29;20045;-87
2021/05/20 03:49:13;;;;;;;12.15;5.65;;;8.30;99.90;;;;;;4889633;29;20067;-88
2021/05/20 03:51:43;;;;;;;;;;;8.90;99.90;;;;;;4893731;29;20056;-87
2021/05/20 03:54:11;;;;;;;10.32;5.78;;;9.30;99.90;;;;;;4884451;29;19923;-87
2021/05/20 03:56:42;;;;;;;10.57;5.38;;;9.40;99.90;;;;;;4888116;29;20049;-85
2021/05/20 03:59:10;;;;;;;15.20;7.22;;;9.10;99.90;;;;;;4922394;29;20063;-86
2021/05/20 04:01:40;;;;;;;10.63;4.95;;;9.70;99.90;;;;;;4930090;29;20048;-86
2021/05/20 04:04:09;;;;;;;10.93;5.38;;;8.90;99.90;;;;;;4895120;29;20047;-87
2021/05/20 04:06:39;;;;;;;17.90;7.32;;;8.20;99.90;;;;;;4890474;29;20420;-87
2021/05/20 04:09:10;;;;;;;7.60;4.85;;;8.10;99.90;;;;;;4903880;29;20388;-87
2021/05/20 04:11:39;;;;;;;9.30;5.20;;;8.30;99.90;;;;;;4921543;29;20056;-86
2021/05/20 04:14:09;;;;;;;9.18;5.03;;;8.10;99.90;;;;;;4913533;29;20480;-87
2021/05/20 04:16:38;;;;;;;17.08;6.75;;;8.10;99.90;;;;;;4893994;29;20044;-88
2021/05/20 04:19:07;;;;;;;14.82;4.32;;;8.20;99.90;;;;;;4894816;29;20508;-86
2021/05/20 04:21:36;;;;;;;13.30;5.07;;;9.50;99.90;;;;;;4896650;29;20052;-86
2021/05/20 04:24:24;;;;;;;10.05;4.68;;;8.20;99.90;;;;;;4908365;29;20052;-86
2021/05/20 04:26:52;;;;;;;15.40;4.60;;;8.20;99.90;;;;;;4916623;29;20055;-86
2021/05/20 04:29:22;;;;;;;10.98;4.88;;;8.30;99.90;;;;;;4910926;29;20052;-86
2021/05/20 04:31:54;;;;;;;11.35;4.93;;;8.30;99.90;;;;;;4881048;29;20047;-87
2021/05/20 04:34:26;;;;;;;14.25;6.50;;;8.40;99.90;;;;;;4892725;29;20059;-86
2021/05/20 04:36:54;;;;;;;8.30;4.85;;;8.40;99.90;;;;;;4918770;29;20048;-86
2021/05/20 04:39:25;;;;;;;11.77;4.88;;;8.40;99.90;;;;;;4892079;29;20056;-87
2021/05/20 04:41:56;;;;;;;9.55;4.45;;;8.70;99.90;;;;;;4913114;29;20067;-87
2021/05/20 04:44:26;;;;;;;10.27;4.20;;;8.70;99.90;;;;;;4897750;29;20056;-87
2021/05/20 04:46:55;;;;;;;6.93;3.45;;;9.00;99.90;;;;;;4900902;29;20049;-87
2021/05/20 04:49:27;;;;;;;6.55;3.22;;;8.80;99.90;;;;;;4896614;29;20051;-87
2021/05/20 04:51:57;;;;;;;6.05;4.22;;;8.80;99.90;;;;;;4900193;29;20048;-87
2021/05/20 04:54:25;;;;;;;7.72;4.00;;;8.80;99.90;;;;;;4910447;29;20063;-87
2021/05/20 04:56:53;;;;;;;5.20;3.15;;;8.90;99.90;;;;;;4920368;29;20657;-87
2021/05/20 04:59:22;;;;;;;7.57;4.53;;;8.80;99.90;;;;;;4912246;29;20393;-88
2021/05/20 05:01:51;;;;;;;7.97;3.28;;;9.00;99.90;;;;;;4906605;29;20059;-87
2021/05/20 05:04:19;;;;;;;6.82;3.85;;;10.00;99.90;;;;;;4920379;29;20055;-86
2021/05/20 05:06:48;;;;;;;6.88;2.92;;;9.20;99.90;;;;;;4900544;29;20056;-87
2021/05/20 05:09:16;;;;;;;11.77;4.72;;;9.30;99.90;;;;;;4893817;29;20064;-87
2021/05/20 05:11:44;;;;;;;3.95;2.92;;;9.30;99.90;;;;;;4915548;29;20044;-86
2021/05/20 05:14:12;;;;;;;6.35;3.20;;;9.40;99.90;;;;;;4879119;29;20048;-86
2021/05/20 05:16:40;;;;;;;5.80;3.08;;;9.60;99.90;;;;;;4877049;29;20063;-87
2021/05/20 05:19:10;;;;;;;3.65;2.63;;;9.50;99.90;;;;;;4887920;29;20048;-87
2021/05/20 05:21:37;;;;;;;7.15;3.70;;;9.80;99.90;;;;;;4883286;29;20056;-87
2021/05/20 05:24:09;;;;;;;3.70;2.47;;;10.50;99.90;;;;;;4912793;29;20055;-87
2021/05/20 05:26:38;;;;;;;4.57;2.75;;;9.70;99.90;;;;;;4897259;29;20047;-87
2021/05/20 05:29:07;;;;;;;9.88;2.65;;;10.70;99.90;;;;;;4899467;29;20071;-87
2021/05/20 05:31:38;;;;;;;;;;;10.00;99.90;;;;;;4903119;29;20052;-86
2021/05/20 05:34:07;;;;;;;5.35;2.13;;;9.80;99.90;;;;;;4907870;29;19934;-86
2021/05/20 05:36:34;;;;;;;5.78;2.53;;;10.50;99.90;;;;;;4885001;29;20055;-87
2021/05/20 05:39:03;;;;;;;9.05;2.33;;;10.00;99.90;;;;;;4890504;29;20052;-86
2021/05/20 05:41:31;;;;;;;6.82;2.25;;;10.00;99.90;;;;;;4922248;29;20056;-87
2021/05/20 05:43:58;;;;;;;4.80;2.35;;;9.90;99.90;;;;;;4883810;29;20051;-87
2021/05/20 05:46:29;;;;;;;5.72;2.42;;;10.10;99.90;;;;;;4880797;29;20063;-87
2021/05/20 05:49:09;;;;;;;5.28;2.63;;;10.20;99.90;;;;;;4885868;29;20059;-87
2021/05/20 05:51:40;;;;;;;3.42;1.98;;;10.20;99.90;;;;;;4908459;29;20067;-86
2021/05/20 05:54:08;;;;;;;5.18;2.50;;;11.60;99.90;;;;;;4900140;29;20070;-87
2021/05/20 05:56:36;;;;;;;8.30;3.53;;;10.40;99.90;;;;;;4908132;29;20060;-87
2021/05/20 05:59:15;;;;;;;8.13;2.60;;;10.40;99.90;;;;;;4559880;29;10001056;-87
2021/05/20 06:01:43;;;;;;;4.47;2.28;;;10.80;99.90;;;;;;4906107;29;20526;-87
2021/05/20 06:04:14;;;;;;;6.35;2.67;;;10.50;99.90;;;;;;4911887;29;20084;-87
2021/05/20 06:06:47;;;;;;;4.35;2.22;;;10.80;99.90;;;;;;4896516;29;20409;-86
2021/05/20 06:09:15;;;;;;;9.43;2.35;;;10.70;99.90;;;;;;4907973;29;20056;-87
2021/05/20 06:11:45;;;;;;;6.82;2.08;;;10.80;99.90;;;;;;4901009;29;20052;-88
2021/05/20 06:14:15;;;;;;;7.03;3.75;;;10.80;99.90;;;;;;4894044;29;20048;-86
2021/05/20 06:16:45;;;;;;;5.18;2.55;;;10.90;99.90;;;;;;4878150;29;20187;-87
2021/05/20 06:19:14;;;;;;;11.70;2.58;;;10.90;99.90;;;;;;4913722;29;20064;-86
2021/05/20 06:21:42;;;;;;;5.72;1.88;;;10.90;99.90;;;;;;4912115;29;20052;-87
2021/05/20 06:24:10;;;;;;;6.80;1.60;;;11.00;99.90;;;;;;4885122;29;20048;-89
2021/05/20 06:26:38;;;;;;;4.28;2.63;;;11.10;99.90;;;;;;4878626;29;20052;-87
2021/05/20 06:29:06;;;;;;;5.10;2.08;;;11.10;99.90;;;;;;4877734;29;20060;-87
2021/05/20 06:31:34;;;;;;;3.88;1.58;;;11.20;99.90;;;;;;4910017;29;20048;-87
2021/05/20 06:34:02;;;;;;;2.67;1.75;;;11.20;99.90;;;;;;4864389;29;20484;-86
2021/05/20 06:36:30;;;;;;;2.45;2.00;;;11.20;99.90;;;;;;4890309;29;20061;-87
2021/05/20 06:38:58;;;;;;;4.57;2.38;;;11.30;99.90;;;;;;4908913;29;20071;-92
2021/05/20 06:41:27;;;;;;;3.58;1.85;;;11.30;99.90;;;;;;4890383;29;20072;-87
2021/05/20 06:43:55;;;;;;;7.72;2.22;;;11.40;99.90;;;;;;4878638;29;20048;-86
2021/05/20 06:46:23;;;;;;;6.38;3.05;;;11.40;99.90;;;;;;4883546;29;20052;-89
2021/05/20 06:48:50;;;;;;;7.20;2.55;;;11.40;99.90;;;;;;4873280;29;20048;-87
2021/05/20 06:51:18;;;;;;;2.60;1.58;;;11.50;99.90;;;;;;4914398;29;20060;-88
2021/05/20 06:53:49;;;;;;;1.80;1.45;;;11.40;99.90;;;;;;4891970;29;20056;-88
2021/05/20 06:56:22;;;;;;;2.30;1.35;;;11.60;99.90;;;;;;4898806;29;20052;-87
2021/05/20 07:01:38;;;;;;;2.10;1.50;;;11.60;99.90;;;;;;4902406;29;20052;-88
2021/05/20 07:04:07;;;;;;;3.53;1.60;;;11.60;99.90;;;;;;4897609;29;20056;-89
2021/05/20 07:06:34;;;;;;;7.65;1.58;;;11.60;99.90;;;;;;4879875;29;20044;-88
2021/05/20 07:09:22;;;;;;;5.28;1.13;;;11.70;99.90;;;;;;4864251;29;20059;-89
2021/05/20 07:11:50;;;;;;;3.67;1.67;;;11.70;99.90;;;;;;4885967;29;20052;-89
2021/05/20 07:14:18;;;;;;;2.97;1.73;;;11.90;99.90;;;;;;4885524;29;20491;-86
2021/05/20 07:16:46;;;;;;;1.95;1.48;;;11.70;99.90;;;;;;4909377;29;20049;-87
2021/05/20 07:19:22;;;;;;;4.45;1.48;;;11.80;99.90;;;;;;4908245;29;20048;-84
2021/05/20 07:21:50;;;;;;;5.35;1.90;;;11.80;99.90;;;;;;4908629;29;20074;-88
2021/05/20 07:24:19;;;;;;;13.80;2.10;;;11.80;99.90;;;;;;4885346;29;20059;-88
2021/05/20 07:26:52;;;;;;;2.42;1.42;;;11.90;99.90;;;;;;4895307;29;20056;-89
2021/05/20 07:29:20;;;;;;;5.45;1.40;;;11.90;99.90;;;;;;4879356;29;20055;-87
2021/05/20 07:31:48;;;;;;;3.85;2.03;;;11.80;99.90;;;;;;4881053;29;20051;-87
2021/05/20 07:34:16;;;;;;;4.68;1.50;;;11.90;99.90;;;;;;4882912;29;20048;-87
2021/05/20 07:36:44;;;;;;;4.57;1.27;;;11.80;99.90;;;;;;4898695;29;20523;-87
2021/05/20 07:39:12;;;;;;;5.53;2.83;;;11.90;99.90;;;;;;4896033;29;20083;-87
2021/05/20 07:41:41;;;;;;;7.72;1.70;;;12.00;99.90;;;;;;4901950;29;20052;-88
2021/05/20 07:44:09;;;;;;;3.65;1.80;;;11.90;99.90;;;;;;4874651;29;20064;-88
2021/05/20 07:46:36;;;;;;;2.55;1.70;;;12.00;99.90;;;;;;4886222;29;20045;-88
2021/05/20 07:49:05;;;;;;;8.98;2.47;;;12.20;99.90;;;;;;4890965;29;20052;-88
2021/05/20 07:51:33;;;;;;;6.22;1.75;;;12.00;99.90;;;;;;4873725;29;20040;-87
2021/05/20 07:54:01;;;;;;;4.55;2.08;;;12.20;99.90;;;;;;4889867;29;20056;-87
2021/05/20 07:56:29;;;;;;;4.47;1.80;;;12.20;99.90;;;;;;4901888;29;20063;-87
2021/05/20 07:58:58;;;;;;;4.80;2.05;;;12.30;99.90;;;;;;4905014;29;20098;-88
2021/05/20 08:01:27;;;;;;;2.33;2.10;;;12.30;99.90;;;;;;4868622;29;20045;-87
2021/05/20 08:04:06;;;;;;;7.03;2.75;;;12.30;99.90;;;;;;4888632;29;20056;-90
2021/05/20 08:06:46;;;;;;;10.45;2.58;;;12.40;99.90;;;;;;4902690;29;20055;-87
2021/05/20 08:09:21;;;;;;;8.05;2.42;;;12.50;99.90;;;;;;4895808;29;20076;-87
2021/05/20 08:11:49;;;;;;;9.30;2.50;;;13.00;99.90;;;;;;4885967;29;20059;-87
2021/05/20 08:14:17;;;;;;;4.95;1.73;;;12.80;99.90;;;;;;4880330;29;20061;-87
2021/05/20 08:16:45;;;;;;;5.13;2.50;;;12.60;99.90;;;;;;4912636;29;20400;-88
2021/05/20 08:19:13;;;;;;;5.75;2.55;;;12.70;99.90;;;;;;4886515;29;20412;-87
2021/05/20 08:21:41;;;;;;;6.55;3.05;;;12.80;99.90;;;;;;4878375;29;20059;-88
2021/05/20 08:24:09;;;;;;;5.07;2.80;;;12.80;99.90;;;;;;4900760;29;20452;-87
2021/05/20 08:26:38;;;;;;;10.50;3.10;;;12.90;99.90;;;;;;4881446;29;20773;-87
2021/05/20 08:29:06;;;;;;;7.13;2.50;;;12.90;99.90;;;;;;4882657;29;20048;-87
2021/05/20 08:31:34;;;;;;;5.47;2.55;;;13.00;99.90;;;;;;4907618;29;20567;-87
2021/05/20 08:34:02;;;;;;;6.60;2.65;;;13.10;99.90;;;;;;4880398;29;20071;-88
2021/05/20 08:36:32;;;;;;;9.75;3.80;;;13.20;99.90;;;;;;4880906;29;20052;-88
2021/05/20 08:39:00;;;;;;;12.18;2.90;;;13.20;99.90;;;;;;4875351;29;20440;-88
2021/05/20 08:41:28;;;;;;;11.50;5.18;;;13.30;99.90;;;;;;4893267;29;20067;-88
2021/05/20 08:43:58;;;;;;;5.78;2.85;;;13.30;99.90;;;;;;4893928;29;20052;-87
2021/05/20 08:46:26;;;;;;;10.82;2.80;;;13.40;99.90;;;;;;4861578;29;20049;-87
2021/05/20 08:48:54;;;;;;;14.18;2.63;;;13.50;99.90;;;;;;4863367;29;20056;-87
2021/05/20 08:51:22;;;;;;;7.35;2.67;;;13.50;99.90;;;;;;4878676;29;20551;-88
2021/05/20 08:53:49;;;;;;;11.38;2.90;;;13.60;99.90;;;;;;4888089;29;20048;-88
2021/05/20 08:56:17;;;;;;;6.65;2.47;;;13.60;99.90;;;;;;4886962;29;20055;-88
2021/05/20 08:58:45;;;;;;;5.82;2.63;;;13.70;99.90;;;;;;4863813;29;20052;-87
2021/05/20 09:01:52;;;;;;;13.77;2.97;;;13.80;99.90;;;;;;4881675;29;20052;-88
2021/05/20 09:04:24;;;;;;;7.15;2.42;;;13.80;99.90;;;;;;4825309;29;20134;-88
2021/05/20 09:06:55;;;;;;;10.32;2.75;;;13.90;99.90;;;;;;4803289;29;20058;-89
2021/05/20 09:09:29;;;;;;;8.02;2.80;;;13.90;99.90;;;;;;4853425;29;20052;-87
2021/05/20 09:11:58;;;;;;;9.63;2.40;;;14.00;99.90;;;;;;4896394;29;20044;-87
2021/05/20 09:14:42;;;;;;;3.22;2.13;;;14.10;99.90;;;;;;4896459;29;20049;-88
2021/05/20 09:17:13;;;;;;;8.80;2.50;;;14.10;99.90;;;;;;4882136;29;20414;-88
2021/05/20 09:19:43;;;;;;;12.88;2.17;;;14.10;99.90;;;;;;4902467;29;20063;-87
2021/05/20 09:22:13;;;;;;;8.05;2.13;;;14.20;99.90;;;;;;4868345;29;20064;-90
2021/05/20 09:24:44;;;;;;;4.87;2.50;;;14.20;99.90;;;;;;4870325;29;20430;-88
2021/05/20 09:27:36;;;;;;;11.10;2.00;;;14.10;99.90;;;;;;4870603;29;20052;-89
2021/05/20 09:30:15;;;;;;;10.80;2.28;;;14.10;99.90;;;;;;4869053;29;20060;-87
2021/05/20 09:32:51;;;;;;;11.20;2.60;;;14.20;99.90;;;;;;4878371;29;20761;-88
2021/05/20 09:35:30;;;;;;;7.25;2.00;;;14.10;99.90;;;;;;4882161;29;20067;-88
2021/05/20 09:38:01;;;;;;;7.50;3.25;;;14.10;99.90;;;;;;4885297;29;20080;-88
2021/05/20 09:40:41;;;;;;;5.32;1.83;;;14.10;99.90;;;;;;4871588;29;20060;-89
2021/05/20 09:43:19;;;;;;;10.25;2.88;;;14.20;99.90;;;;;;4865778;29;20064;-88
2021/05/20 09:45:50;;;;;;;7.15;1.80;;;14.10;99.90;;;;;;4894572;29;20443;-88
2021/05/20 09:48:21;;;;;;;10.80;2.10;;;14.00;99.90;;;;;;4895950;29;20064;-90
2021/05/20 09:50:54;;;;;;;7.50;2.13;;;14.10;99.90;;;;;;4893831;29;20060;-88
2021/05/20 09:53:27;;;;;;;6.97;2.28;;;14.00;99.90;;;;;;4858135;29;20141;-91
2021/05/20 09:55:59;;;;;;;12.60;2.55;;;14.00;99.90;;;;;;4874042;29;20134;-89
2021/05/20 09:58:32;;;;;;;11.20;2.35;;;14.00;99.90;;;;;;4873463;29;20051;-88
2021/05/20 10:01:01;;;;;;;13.20;2.25;;;14.10;99.90;;;;;;4879694;29;20052;-89
2021/05/20 10:03:34;;;;;;;11.63;2.35;;;14.10;99.90;;;;;;4890211;29;20459;-88
2021/05/20 10:06:04;;;;;;;9.38;2.42;;;14.10;99.90;;;;;;4867280;29;20063;-88
2021/05/20 10:08:33;;;;;;;11.18;2.50;;;14.10;99.90;;;;;;4876991;29;20068;-88
2021/05/20 10:11:05;;;;;;;6.30;2.88;;;14.10;99.90;;;;;;4864966;29;20060;-88
2021/05/20 10:13:32;;;;;;;9.65;3.05;;;14.10;99.90;;;;;;4894307;29;20059;-88
2021/05/20 10:16:01;;;;;;;10.55;2.38;;;14.10;99.90;;;;;;4879892;29;20059;-88
2021/05/20 10:18:29;;;;;;;10.40;3.15;;;14.00;99.90;;;;;;4880758;29;20069;-88
2021/05/20 10:21:02;;;;;;;10.38;2.58;;;13.90;99.90;;;;;;4856782;29;20055;-88
2021/05/20 10:23:30;;;;;;;8.30;2.10;;;13.90;99.90;;;;;;4858677;29;20559;-88
2021/05/20 10:25:59;;;;;;;12.05;2.22;;;14.00;99.90;;;;;;4872249;29;20068;-88
2021/05/20 10:28:27;;;;;;;9.80;2.42;;;14.10;99.90;;;;;;4877936;29;20485;-89
2021/05/20 10:30:57;;;;;;;8.57;3.10;;;14.20;99.90;;;;;;4876530;29;20048;-89
2021/05/20 10:33:27;;;;;;;8.65;3.03;;;14.30;99.90;;;;;;4876446;29;20056;-88
2021/05/20 10:35:57;;;;;;;11.00;2.58;;;14.40;99.90;;;;;;4859622;29;20068;-89
2021/05/20 10:38:29;;;;;;;13.40;4.75;;;14.40;99.90;;;;;;4868601;29;20059;-89
2021/05/20 10:41:08;;;;;;;13.95;3.97;;;14.50;99.90;;;;;;4872689;29;20161;-88
2021/05/20 10:43:38;;;;;;;12.60;2.60;;;14.60;99.90;;;;;;4877877;29;20064;-88
2021/05/20 10:46:07;;;;;;;8.48;2.28;;;14.60;99.90;;;;;;4884956;29;20056;-89
2021/05/20 10:48:37;;;;;;;11.82;3.60;;;14.70;99.90;;;;;;4876918;29;20060;-88
2021/05/20 10:51:13;;;;;;;16.23;2.28;;;14.70;99.90;;;;;;4887596;29;20059;-89
2021/05/20 10:53:52;;;;;;;7.40;3.60;;;14.70;99.90;;;;;;4858664;29;20052;-90
2021/05/20 10:56:23;;;;;;;10.48;3.05;;;14.70;99.90;;;;;;4863158;29;20060;-89
2021/05/20 10:58:52;;;;;;;9.25;2.38;;;14.80;99.90;;;;;;4867716;29;20051;-89
2021/05/20 11:01:20;;;;;;;13.10;2.42;;;14.80;99.90;;;;;;4871353;29;20056;-89
2021/05/20 11:03:59;;;;;;;9.48;2.25;;;14.80;99.90;;;;;;4858845;29;20057;-89
2021/05/20 11:06:39;;;;;;;7.38;2.97;;;14.80;99.90;;;;;;4895320;29;20045;-89
2021/05/20 11:09:16;;;;;;;8.73;2.10;;;14.90;99.90;;;;;;4868771;29;20053;-88
2021/05/20 11:11:44;;;;;;;11.82;2.38;;;15.00;99.90;;;;;;4850428;29;20076;-89
2021/05/20 11:14:14;;;;;;;7.65;2.35;;;15.10;99.90;;;;;;4893375;29;20063;-88
2021/05/20 11:16:46;;;;;;;13.75;4.50;;;15.20;99.90;;;;;;4877791;29;20048;-89
2021/05/20 11:19:21;;;;;;;12.73;3.47;;;15.20;99.90;;;;;;4878769;29;20056;-89
2021/05/20 11:21:58;;;;;;;9.65;2.03;;;15.10;99.90;;;;;;4863833;29;20394;-89
2021/05/20 11:24:28;;;;;;;6.22;1.95;;;15.00;99.90;;;;;;4867440;29;20057;-89
2021/05/20 11:26:58;;;;;;;7.85;2.05;;;14.90;99.90;;;;;;4878281;29;20409;-89
2021/05/20 11:29:28;;;;;;;7.55;2.28;;;14.10;99.90;;;;;;4893533;29;20064;-89
2021/05/20 11:32:02;;;;;;;11.13;2.95;;;14.70;99.90;;;;;;4878666;29;20048;-89
2021/05/20 11:35:01;;;;;;;12.27;2.03;;;14.60;99.90;;;;;;4878334;29;20073;-89
2021/05/20 11:37:39;;;;;;;7.75;2.20;;;14.60;99.90;;;;;;4873074;29;20067;-92
2021/05/20 11:40:30;;;;;;;3.58;1.48;;;14.50;99.90;;;;;;4896044;29;20141;-88
2021/05/20 11:43:32;;;;;;;9.50;2.70;;;14.50;99.90;;;;;;4886887;29;20053;-92
2021/05/20 11:46:23;;;;;;;8.30;2.10;;;14.50;99.90;;;;;;4648154;23;10000489;-92
2021/05/20 11:49:44;;;;;;;13.63;2.45;;;14.50;99.90;;;;;;4876212;29;20048;-92
2021/05/20 11:58:28;;;;;;;5.10;1.70;;;14.60;99.90;;;;;;4957243;23;20062;-92
2021/05/20 12:01:53;;;;;;;6.60;2.13;;;14.60;99.90;;;;;;4915449;29;20068;-92
2021/05/20 12:06:17;;;;;;;6.20;2.40;;;14.70;99.90;;;;;;4915162;29;20052;-91
2021/05/20 12:14:20;;;;;;;7.72;2.28;;;14.60;99.90;;;;;;4871251;29;20056;-91
2021/05/20 12:18:21;;;;;;;6.30;1.80;;;14.50;99.90;;;;;;4860604;29;20045;-91
2021/05/20 12:22:02;;;;;;;4.15;1.88;;;14.60;99.90;;;;;;4847715;29;20181;-91
2021/05/20 12:25:24;;;;;;;5.35;2.00;;;14.60;99.90;;;;;;5015917;23;20040;-90
2021/05/20 12:27:55;;;;;;;8.15;1.70;;;14.90;99.90;;;;;;4918535;29;20052;-90
2021/05/20 12:30:38;;;;;;;8.63;1.85;;;15.10;99.90;;;;;;4893174;29;20158;-90
2021/05/20 12:33:10;;;;;;;7.13;2.38;;;15.40;99.90;;;;;;4906675;29;20056;-85
2021/05/20 12:35:41;;;;;;;2.92;1.20;;;15.70;99.90;;;;;;4901608;29;20040;-87
2021/05/20 12:38:17;;;;;;;;;;;15.90;99.90;;;;;;4930112;29;20055;-87
2021/05/20 12:40:54;;;;;;;7.38;1.90;;;16.00;99.90;;;;;;4914240;29;19923;-88
2021/05/20 12:43:31;;;;;;;8.38;1.67;;;16.10;99.90;;;;;;4900533;29;20067;-88
2021/05/20 12:46:26;;;;;;;;;;;16.10;99.90;;;;;;4883967;29;20059;-88
2021/05/20 12:49:02;;;;;;;11.13;2.97;;;16.20;99.90;;;;;;4902082;29;19927;-87
2021/05/20 12:51:29;;;;;;;12.95;1.85;;;16.10;99.90;;;;;;4914925;29;20048;-89
2021/05/20 12:54:02;;;;;;;11.13;1.70;;;16.20;99.90;;;;;;4899103;29;20405;-89
2021/05/20 12:56:44;;;;;;;14.75;2.50;;;16.30;99.90;;;;;;4888383;29;20044;-88
2021/05/20 12:59:16;;;;;;;3.33;1.40;;;16.30;99.90;;;;;;4895665;29;20052;-87
2021/05/20 13:01:50;;;;;;;7.07;2.25;;;16.50;99.90;;;;;;4912805;29;20055;-88
2021/05/20 13:04:23;;;;;;;4.00;1.60;;;16.40;99.90;;;;;;4894900;29;20143;-87
2021/05/20 13:07:02;;;;;;;8.60;1.65;;;16.40;99.90;;;;;;4891869;29;20051;-86
2021/05/20 13:09:37;;;;;;;4.88;1.75;;;16.20;99.90;;;;;;4880031;29;20061;-88
2021/05/20 13:12:10;;;;;;;17.60;3.42;;;15.90;99.90;;;;;;4891748;29;20543;-85
2021/05/20 13:14:43;;;;;;;8.18;2.08;;;15.80;99.90;;;;;;4907054;29;20051;-86
2021/05/20 13:22:39;;;;;;;6.90;3.10;;;15.80;99.90;;;;;;4914746;29;20056;-86
2021/05/20 13:25:18;;;;;;;10.93;2.17;;;15.80;99.90;;;;;;4917458;29;20055;-87
2021/05/20 13:27:47;;;;;;;;;;;15.70;99.90;;;;;;4929450;29;20051;-89
2021/05/20 13:33:02;;;;;;;3.15;1.23;;;15.90;99.90;;;;;;4932363;29;20060;-87
2021/05/20 13:35:31;;;;;;;4.53;1.30;;;16.00;99.90;;;;;;4929235;29;21629;-86
2021/05/20 13:37:59;;;;;;;6.68;1.90;;;16.20;99.90;;;;;;4909545;29;20059;-87